Latest Weather Observations for Montague Island

IDN60801

Issued at 12:23 pm EDT Monday 26 October 2020 (issued every 10 minutes, with the page automatically refreshed every 10 minutes)

About weather observations | Map of weather stations | Latest weather observations for NSW | Other Formats
Station Details ID: 069017 Name: MONTAGUE ISLAND LIGHTHOUSE Lat: -36.25 Lon: 150.23 Height: 52.0 m
Data from the previous 72 hours. | See also: Recent months at Montague Island
Date/Time
EDT
Temp
°C
App
Temp
°C
Dew
Point
°C
Rel
Hum
%
Delta-T
°C
Wind Press
QNH
hPa
Press
MSL
hPa
Rain since
9am
mm
Dir  Spd
km/h
Gust
km/h
Spd
kts
Gust
kts
26/12:00pm 14.2 5.3 9.2 72 2.5 SE 46 56 25 30 1022.8 1022.7 0.6
26/11:32am 12.3 4.8 10.7 90 0.8 ESE 41 59 22 32 1023.1 1023.0 0.6
26/11:30am 12.5 4.5 11.1 91 0.7 ESE 44 61 24 33 1023.2 1023.1 0.6
26/11:22am 13.7 7.4 10.9 83 1.5 ESE 35 61 19 33 1023.2 1023.1 0.4
26/11:15am 14.1 7.0 10.9 81 1.7 ESE 39 48 21 26 1023.2 1023.1 0.0
26/11:00am 13.9 3.5 10.7 81 1.7 ESE 56 72 30 39 1023.0 1022.9 0.0
26/10:57am 14.6 5.1 11.0 79 1.9 SE 52 72 28 39 1022.9 1022.8 0.0
26/10:30am 14.2 4.9 10.4 78 2.0 SE 50 59 27 32 1023.1 1023.0 0.0
26/10:00am 14.2 4.4 10.2 77 2.1 SE 52 59 28 32 1022.7 1022.6 0.0
26/09:30am 14.4 5.0 10.0 75 2.3 SE 50 61 27 33 1022.7 1022.6 0.0
26/09:09am 13.3 5.8 10.7 84 1.4 SE 41 59 22 32 1022.9 1022.8 0.0
26/09:00am 13.2 3.7 11.1 87 1.1 SE 52 59 28 32 1022.9 1022.8 3.4
26/08:36am 13.2 6.7 11.6 90 0.9 S 37 67 20 36 1022.9 1022.8 3.4
26/08:33am 12.5 5.9 10.0 85 1.3 SSW 35 67 19 36 1023.0 1022.9 3.4
26/08:32am 12.2 5.2 9.8 85 1.2 SSW 37 57 20 31 1023.0 1022.9 3.4
26/08:30am 12.1 4.9 9.3 83 1.4 SW 37 57 20 31 1022.9 1022.8 3.4
26/08:29am 12.1 4.9 9.1 82 1.5 SW 37 57 20 31 1022.9 1022.8 3.4
26/08:00am 12.6 3.8 9.4 81 1.6 SW 46 61 25 33 1022.1 1022.0 3.4
26/07:30am 12.8 2.5 9.8 82 1.5 SSW 54 69 29 37 1022.0 1021.9 3.4
26/07:00am 13.2 3.5 10.4 83 1.5 SSW 52 65 28 35 1021.6 1021.5 3.4
26/06:57am 13.2 5.0 10.4 83 1.5 SSW 44 65 24 35 1021.7 1021.6 3.4
26/06:35am 12.6 6.7 11.0 90 0.8 SSW 33 44 18 24 1021.7 1021.6 3.4
26/06:30am 12.2 5.0 10.6 90 0.8 SW 39 50 21 27 1021.8 1021.7 3.4
26/06:00am 11.9 3.9 10.6 92 0.7 SW 43 56 23 30 1021.5 1021.4 3.4
26/05:30am 12.5 3.8 11.4 93 0.6 SSW 48 61 26 33 1020.9 1020.8 3.4
26/05:00am 13.3 7.1 11.4 88 1.0 S 35 56 19 30 1020.6 1020.5 3.4
26/04:58am 13.4 7.8 11.5 88 1.0 S 32 52 17 28 1020.8 1020.7 3.4
26/04:47am 14.1 6.8 10.3 78 2.0 SSE 39 54 21 29 1021.0 1020.9 3.4
26/04:32am 13.9 5.8 10.7 81 1.7 SE 44 57 24 31 1020.6 1020.5 3.4
26/04:30am 13.9 5.9 11.2 84 1.4 SE 44 57 24 31 1020.6 1020.5 3.4
26/04:00am 13.8 5.1 11.3 85 1.3 SE 48 59 26 32 1020.6 1020.5 3.2
26/03:30am 13.4 5.0 11.1 86 1.2 SE 46 59 25 32 1020.4 1020.3 3.0
26/03:00am 14.1 4.8 10.5 79 1.9 SE 50 59 27 32 1020.5 1020.4 3.0
26/02:30am 13.0 5.2 11.7 92 0.7 SE 44 54 24 29 1020.9 1020.8 2.6
26/02:00am 13.6 6.0 11.7 88 1.0 SE 43 59 23 32 1021.2 1021.1 1.6
26/01:30am 14.2 6.4 11.9 86 1.2 SE 44 56 24 30 1021.2 1021.1 1.6
26/01:00am 14.5 6.3 11.8 84 1.5 SE 46 59 25 32 1021.5 1021.4 1.6
26/12:30am 15.2 6.2 8.9 66 3.2 ESE 46 56 25 30 1021.6 1021.5 1.6
26/12:00am 15.2 6.2 8.7 65 3.3 ESE 46 57 25 31 1021.4 1021.3 1.6
 
Date/Time
EDT
Temp
°C
App
Temp
°C
Dew
Point
°C
Rel
Hum
%
Delta-T
°C
Wind Press
QNH
hPa
Press
MSL
hPa
Rain since
9am
mm
Dir  Spd
km/h
Gust
km/h
Spd
kts
Gust
kts
25/11:30pm 15.4 7.1 10.0 70 2.8 ESE 44 52 24 28 1021.4 1021.3 1.6
25/11:00pm 15.5 7.1 9.8 69 3.0 ESE 44 54 24 29 1021.5 1021.4 1.6
25/10:30pm 15.4 6.9 10.8 74 2.4 ESE 46 54 25 29 1021.3 1021.2 1.6
25/10:00pm 15.5 7.3 10.3 71 2.7 ESE 44 54 24 29 1021.2 1021.1 1.6
25/09:30pm 15.3 6.4 10.5 73 2.5 ESE 48 56 26 30 1020.8 1020.7 1.6
25/09:00pm 15.3 7.4 12.6 84 1.5 E 46 54 25 29 1020.5 1020.4 1.6
25/08:30pm 15.0 6.3 12.5 85 1.4 ESE 50 61 27 33 1019.8 1019.7 1.6
25/08:00pm 14.0 6.5 12.6 91 0.8 ESE 44 54 24 29 1019.5 1019.4 1.6
25/07:30pm 14.3 7.8 13.0 92 0.7 SE 39 44 21 24 1019.2 1019.1 1.6
25/07:25pm 14.2 7.7 12.9 92 0.7 SE 39 44 21 24 1019.0 1018.9 1.6
25/07:00pm 13.8 10.0 13.6 99 0.1 ESE 26 39 14 21 1018.7 1018.6 1.6
25/06:51pm 13.1 7.7 12.8 98 0.2 SE 33 56 18 30 1018.7 1018.6 1.6
25/06:46pm 13.7 8.7 13.4 98 0.2 S 32 56 17 30 1018.3 1018.2 1.6
25/06:44pm 13.6 8.9 13.3 98 0.2 SSW 30 54 16 29 1018.4 1018.3 1.4
25/06:30pm 13.5 8.2 13.0 97 0.3 SSW 33 43 18 23 1017.9 1017.8 0.4
25/06:00pm 13.3 6.8 12.8 97 0.3 S 39 48 21 26 1017.8 1017.7 0.4
25/05:30pm 13.3 6.1 11.9 91 0.8 S 41 52 22 28 1017.5 1017.4 0.2
25/05:00pm 14.0 8.1 11.2 83 1.5 SSW 33 41 18 22 1017.0 1016.9 0.2
25/04:30pm 13.6 7.7 11.0 84 1.4 SW 33 44 18 24 1016.7 1016.6 0.2
25/04:00pm 13.7 6.2 10.7 82 1.6 SSW 41 54 22 29 1016.4 1016.3 0.0
25/03:30pm 13.6 5.5 10.0 79 1.9 SSW 43 52 23 28 1016.3 1016.2 0.0
25/03:00pm 13.4 6.3 9.6 78 1.9 SW 37 54 20 29 1016.3 1016.2 0.0
25/02:30pm 14.1 6.1 8.9 71 2.6 SW 41 50 22 27 1016.4 1016.3 0.0
25/02:00pm 13.9 6.7 9.3 74 2.3 SSW 37 48 20 26 1016.5 1016.4 0.0
25/01:30pm 14.0 6.2 8.4 69 2.8 SSW 39 48 21 26 1016.4 1016.3 0.0
25/01:00pm 13.8 6.6 7.8 67 3.0 SW 35 48 19 26 1016.3 1016.2 0.0
25/12:30pm 14.0 7.3 8.0 67 3.0 SSW 33 48 18 26 1016.0 1015.9 0.0
25/12:00pm 14.2 7.4 7.9 66 3.1 SSW 33 46 18 25 1016.2 1016.1 0.0
25/11:30am 13.3 6.4 7.1 66 3.0 SW 33 44 18 24 1016.1 1016.0 0.0
25/11:00am 12.8 6.0 7.5 70 2.6 SW 33 41 18 22 1016.0 1015.9 0.0
25/10:30am 12.7 6.1 7.6 71 2.5 SW 32 44 17 24 1015.9 1015.8 0.0
25/10:00am 12.2 4.8 6.9 70 2.5 SW 35 44 19 24 1015.6 1015.5 0.0
25/09:30am 12.1 5.2 7.4 73 2.3 SW 33 43 18 23 1015.4 1015.3 0.0
25/09:00am 11.3 5.4 7.4 77 1.9 SW 28 37 15 20 1015.3 1015.2 11.0
25/08:30am 11.1 4.8 7.2 77 1.9 SW 30 35 16 19 1014.9 1014.8 10.6
25/08:00am 11.4 4.6 6.9 74 2.1 SW 32 39 17 21 1014.4 1014.3 10.6
25/07:30am 11.4 4.0 6.9 74 2.1 SW 35 50 19 27 1013.9 1013.8 10.6
25/07:00am 11.3 2.6 6.0 70 2.5 SW 41 46 22 25 1013.2 1013.1 10.6
25/06:30am 11.1 3.2 6.3 72 2.3 SW 37 46 20 25 1012.5 1012.5 10.6
25/06:00am 11.2 2.9 6.3 72 2.3 SW 39 54 21 29 1011.8 1011.8 10.6
25/05:30am 11.4 1.5 6.5 72 2.3 SW 48 61 26 33 1011.2 1011.2 10.6
25/05:00am 11.5 2.9 8.0 79 1.7 SW 43 56 23 30 1010.8 1010.8 10.6
25/04:30am 12.0 2.8 7.9 76 2.0 SW 46 59 25 32 1010.2 1010.2 10.6
25/04:00am 12.3 3.1 7.8 74 2.2 SSW 46 59 25 32 1009.6 1009.6 10.6
25/03:30am 12.2 3.5 8.5 78 1.8 SSW 44 59 24 32 1009.4 1009.4 10.6
25/03:00am 12.8 4.1 10.0 83 1.4 SSW 46 56 25 30 1009.0 1009.0 10.6
25/02:30am 12.7 3.9 9.7 82 1.5 SSW 46 54 25 29 1008.7 1008.7 10.6
25/02:00am 12.6 3.4 9.6 82 1.5 SSW 48 57 26 31 1008.5 1008.5 10.6
25/01:30am 12.7 4.1 10.4 86 1.2 SSW 46 59 25 32 1008.3 1008.3 10.6
25/01:00am 12.5 4.6 10.7 89 0.9 SSW 43 54 23 29 1008.4 1008.4 10.6
25/12:30am 12.5 4.5 10.4 87 1.1 SSW 43 54 23 29 1008.2 1008.2 10.6
25/12:00am 12.2 5.5 11.1 93 0.6 SSW 37 43 20 23 1008.2 1008.2 10.6
 
Date/Time
EDT
Temp
°C
App
Temp
°C
Dew
Point
°C
Rel
Hum
%
Delta-T
°C
Wind Press
QNH
hPa
Press
MSL
hPa
Rain since
9am
mm
Dir  Spd
km/h
Gust
km/h
Spd
kts
Gust
kts
24/11:30pm 12.4 4.5 10.8 90 0.8 SSW 43 52 23 28 1008.0 1008.0 10.6
24/11:00pm 12.5 4.8 11.4 93 0.6 SSW 43 54 23 29 1007.4 1007.3 10.4
24/10:30pm 12.5 4.3 11.6 94 0.5 SSW 46 56 25 30 1007.4 1007.3 10.2
24/10:00pm 12.9 4.6 11.5 91 0.7 SSW 46 57 25 31 1007.1 1007.0 9.0
24/09:30pm 13.0 3.6 11.6 91 0.7 SSW 52 61 28 33 1006.6 1006.5 7.6
24/09:00pm 13.5 3.9 12.1 91 0.8 SSW 54 67 29 36 1005.7 1005.6 6.2
24/08:30pm 13.4 3.6 12.6 95 0.4 SSW 56 67 30 36 1005.3 1005.2 6.2
24/08:00pm 13.4 4.1 12.9 97 0.3 S 54 65 29 35 1004.5 1004.4 6.2
24/07:30pm 13.8 4.5 13.0 95 0.4 S 54 63 29 34 1004.0 1003.9 6.0
24/07:00pm 14.5 5.2 13.0 91 0.8 S 54 65 29 35 1003.5 1003.4 6.0
24/06:30pm 14.8 5.7 12.5 86 1.3 S 52 63 28 34 1003.5 1003.4 6.0
24/06:00pm 15.4 7.5 13.9 91 0.9 S 48 65 26 35 1002.5 1002.4 6.0
24/05:40pm 15.9 6.6 14.8 93 0.6 S 57 74 31 40 1001.4 1001.3 6.0
24/05:30pm 16.0 7.7 14.9 93 0.6 SSE 52 72 28 39 1000.0 999.9 6.0
24/05:29pm 16.1 8.6 15.1 94 0.6 S 48 69 26 37 1000.4 1000.3 6.0
24/05:00pm 17.1 12.4 16.9 99 0.1 S 37 48 20 26 1002.2 1002.1 5.8
24/04:56pm 17.5 13.4 17.3 99 0.1 S 35 44 19 24 1002.2 1002.1 5.8
24/04:30pm 17.8 17.9 17.5 98 0.2 S 13 26 7 14 1002.0 1001.9 5.6
24/04:00pm 17.8 18.0 17.6 99 0.1 SE 13 17 7 9 1000.8 1000.7 5.6
24/03:30pm 17.6 16.9 17.4 99 0.1 SE 17 22 9 12 1000.6 1000.5 5.6
24/03:00pm 18.1 15.4 17.6 97 0.3 S 28 41 15 22 1000.9 1000.8 4.4
24/02:30pm 18.6 17.5 17.8 95 0.5 W 20 44 11 24 1001.1 1001.0 1.6
24/02:27pm 18.9 18.9 18.1 95 0.5 NNE 15 44 8 24 1001.0 1000.9 1.6
24/02:00pm 18.8 18.4 18.1 96 0.4 NNE 17 20 9 11 1000.3 1000.2 1.6
24/01:30pm 18.7 17.9 17.9 95 0.5 NNE 19 22 10 12 1000.7 1000.6 1.6
24/01:00pm 19.0 16.5 18.0 94 0.6 N 28 37 15 20 1001.0 1000.9 0.8
24/12:30pm 18.6 15.6 17.8 95 0.5 NNE 30 35 16 19 1001.1 1001.0 0.2
24/12:00pm 19.1 15.5 17.2 89 1.2 NNE 32 43 17 23 1000.7 1000.6 0.0
24/11:30am 19.1 14.3 17.6 91 0.9 N 39 46 21 25 1000.9 1000.8 0.0
24/11:00am 18.6 15.0 17.6 94 0.6 NNE 33 41 18 22 1001.2 1001.1 0.0
24/10:30am 18.7 14.7 17.5 93 0.7 NNE 35 43 19 23 1001.5 1001.4 0.0
24/10:00am 19.1 15.1 17.6 91 0.9 NNE 35 43 19 23 1001.6 1001.5 0.0
24/09:30am 18.9 15.3 17.7 93 0.7 NNE 33 43 18 23 1001.6 1001.5 0.0
24/09:00am 18.3 14.3 17.5 95 0.5 NNE 35 43 19 23 1001.9 1001.8 0.4
24/08:30am 18.6 14.8 17.3 92 0.8 N 33 43 18 23 1002.2 1002.1 0.4
24/08:00am 18.0 16.0 17.4 96 0.4 N 24 32 13 17 1002.3 1002.2 0.4
24/07:30am 18.3 15.3 17.7 96 0.4 N 30 35 16 19 1002.3 1002.2 0.4
24/07:00am 18.0 15.9 17.2 95 0.5 NNE 24 32 13 17 1002.0 1001.9 0.4
24/06:30am 18.0 13.9 17.4 96 0.4 N 35 43 19 23 1001.8 1001.7 0.4
24/06:00am 17.6 13.5 17.3 98 0.2 N 35 43 19 23 1001.6 1001.5 0.4
24/05:30am 17.2 14.3 17.0 99 0.1 N 28 35 15 19 1001.9 1001.8 0.4
24/05:00am 17.2 13.9 17.0 99 0.1 N 30 35 16 19 1002.2 1002.1 0.4
24/04:30am 17.0 15.2 17.0 100 0.0 NNW 22 30 12 16 1002.9 1002.8 0.4
24/04:00am 17.3 15.6 17.3 100 0.0 NNE 22 28 12 15 1003.0 1002.9 0.4
24/03:30am 17.1 15.7 17.1 100 0.0 NNE 20 26 11 14 1003.1 1003.0 0.4
24/03:00am 17.0 15.5 16.8 99 0.1 NNE 20 24 11 13 1003.4 1003.3 0.4
24/02:30am 17.1 16.9 16.8 98 0.2 N 13 17 7 9 1004.2 1004.1 0.4
24/02:00am 17.3 17.6 17.0 98 0.2 NW 11 19 6 10 1005.1 1005.0 0.2
24/01:30am 17.3 17.2 17.0 98 0.2 NW 13 15 7 8 1005.5 1005.4 0.2
24/01:00am 17.6 14.7 17.1 97 0.3 N 28 41 15 22 1005.4 1005.3 0.2
24/12:30am 17.8 14.2 17.3 97 0.3 N 32 39 17 21 1005.6 1005.5 0.2
24/12:00am 17.5 15.3 17.0 97 0.3 NNE 24 32 13 17 1006.0 1005.9 0.2
 
Date/Time
EDT
Temp
°C
App
Temp
°C
Dew
Point
°C
Rel
Hum
%
Delta-T
°C
Wind Press
QNH
hPa
Press
MSL
hPa
Rain since
9am
mm
Dir  Spd
km/h
Gust
km/h
Spd
kts
Gust
kts
23/11:42pm 17.3 16.3 16.7 96 0.4 ENE 17 32 9 17 1006.4 1006.3 0.2
23/11:30pm 17.6 19.2 17.0 96 0.4 ENE 4 11 2 6 1006.5 1006.4 0.2
23/11:00pm 17.8 15.3 17.2 96 0.4 N 26 35 14 19 1007.3 1007.2 0.0
23/10:30pm 17.9 15.5 17.3 96 0.4 NNW 26 35 14 19 1007.3 1007.2 0.0
23/10:00pm 18.1 15.0 17.5 96 0.4 N 30 39 16 21 1007.7 1007.6 0.0
23/09:30pm 18.1 14.3 17.3 95 0.5 N 33 44 18 24 1007.7 1007.6 0.0
23/09:00pm 18.4 13.2 17.4 94 0.6 N 41 52 22 28 1007.5 1007.4 0.0
23/08:30pm 18.4 14.6 17.2 93 0.7 N 33 44 18 24 1007.6 1007.5 0.0
23/08:00pm 18.3 15.8 17.1 93 0.7 NNE 26 39 14 21 1007.8 1007.7 0.0
23/07:30pm 18.6 17.2 16.9 90 1.0 N 20 30 11 16 1008.0 1008.0 0.0
23/07:00pm 18.8 17.3 16.8 88 1.2 N 20 32 11 17 1008.1 1008.1 0.0
23/06:30pm 18.9 19.8 16.5 86 1.4 WNW 7 17 4 9 1007.8 1007.7 0.0
23/06:00pm 19.2 19.8 16.8 86 1.5 W 9 17 5 9 1007.6 1007.5 0.0
23/05:39pm 19.3 15.9 16.7 85 1.6 N 30 48 16 26 1007.1 1007.0 0.0
23/05:30pm 19.3 14.9 16.7 85 1.6 NNE 35 46 19 25 1006.7 1006.6 0.0
23/05:00pm 19.5 15.5 16.7 84 1.7 NNE 33 46 18 25 1006.7 1006.6 0.0
23/04:30pm 19.5 15.2 16.9 85 1.6 NNE 35 50 19 27 1007.0 1006.9 0.0
23/04:00pm 19.3 14.3 17.1 87 1.3 NNE 39 48 21 26 1007.0 1006.9 0.0
23/03:30pm 19.6 13.8 17.4 87 1.3 NNE 44 56 24 30 1006.8 1006.7 0.0
23/03:00pm 19.6 13.5 17.6 88 1.2 NNE 46 57 25 31 1007.2 1007.1 0.0
23/02:30pm 19.6 13.8 17.4 87 1.3 NNE 44 56 24 30 1008.0 1008.0 0.0
23/02:00pm 19.5 13.7 17.5 88 1.2 NNE 44 54 24 29 1008.5 1008.5 0.0
23/01:30pm 19.8 14.7 17.6 87 1.4 NNE 41 50 22 27 1008.8 1008.8 0.0
23/01:00pm 19.9 15.9 17.7 87 1.4 NNE 35 46 19 25 1009.6 1009.6 0.0
23/12:30pm 19.8 16.3 17.8 88 1.2 NNE 33 39 18 21 1010.2 1010.2 0.0

Other formats

Comma delimited format used in spreadsheet applications
http://www.bom.gov.au/fwo/IDN60801/IDN60801.94939.axf

JavaScript Object Notation format (JSON) in row-major order
http://www.bom.gov.au/fwo/IDN60801/IDN60801.94939.json

Data quality

Most of these data are generated automatically and are frequently updated. Quality checks on data are not normally performed. It is possible for incorrect values to appear. Refer to information at About Latest Weather Observations and please check the disclaimer before using these data.